»·PEaware :: N924DB KBUR-KBUR

N924DB :: KBUR-KBUR

FLIGHT INFORMATION

Flight Status: Arrived
Operator: Privately registered:
United States
More flights under this callsign
Pilot: John P. (12588)
Aircraft: PIPER PA-28 CHEROKEE ARCHER
(P28A)
More flights by this aircraft type
Origin: KBUR Bob Hope-Burbank
United States
Destination: KBUR Bob Hope-Burbank
United States
More flights between these airports :: More routes between these airports
Route: +VNY095 DARTS
File this flight plan on PilotEdge
Remarks:
Altitude:
(Current/Filed)
5,000ft
Speed:
(Current/Filed)
118kts
Departed: 09-Feb-19 10:06 PM
Arrived: 09-Feb-19 11:10 PM
Distance/Time
Traveled:
0nm/1:04
Distance/Time
To Go:
Arrived

Flight Plot

Page will automatically refresh every two minutes.

Flight plan parsing failed; only flown route is shown


Map Options




Map Legend


Flown Route
Filed Route
Departure Airport
Arrival Airport
Navaid (VOR, NDB)
Fix

Horizontal Profiles

Position Reports

Time Latitude Longitude Heading Altitude Ground
Speed
09-Feb-19 22:04 34.073277 -118.779685 148 5063ft 102kts
09-Feb-19 22:05 34.081057 -118.749265 51 5007ft 113kts
09-Feb-19 22:06 34.099714 -118.719221 53 4964ft 111kts
09-Feb-19 22:07 34.119246 -118.690666 36 4680ft 111kts
09-Feb-19 22:08 34.143331 -118.668045 39 4056ft 109kts
09-Feb-19 22:09 34.165880 -118.644299 37 3359ft 107kts
09-Feb-19 22:10 34.187447 -118.624283 33 4042ft 102kts
09-Feb-19 22:11 34.201407 -118.597977 95 4091ft 97kts
09-Feb-19 22:12 34.200659 -118.563995 92 3668ft 101kts
09-Feb-19 22:13 34.200118 -118.529552 94 3140ft 101kts
09-Feb-19 22:14 34.199612 -118.495178 92 2968ft 94kts
09-Feb-19 22:15 34.199279 -118.463595 92 2375ft 93kts
09-Feb-19 22:16 34.198769 -118.432489 90 1827ft 91kts
09-Feb-19 22:17 34.198343 -118.402334 91 1361ft 87kts
09-Feb-19 22:18 34.198010 -118.372923 89 1134ft 92kts
09-Feb-19 22:19 34.186463 -118.349995 191 2256ft 100kts
09-Feb-19 22:21 34.166927 -118.371063 223 3703ft 94kts
09-Feb-19 22:22 34.146317 -118.391401 221 4627ft 112kts
09-Feb-19 22:23 34.121714 -118.415531 221 4592ft 112kts
09-Feb-19 22:24 34.098054 -118.440111 228 4646ft 113kts
09-Feb-19 22:25 34.073789 -118.464389 222 4704ft 113kts
09-Feb-19 22:26 34.049789 -118.489568 221 4579ft 114kts
09-Feb-19 22:27 34.025724 -118.513836 233 4555ft 108kts
09-Feb-19 22:28 34.027551 -118.549076 281 4614ft 107kts
09-Feb-19 22:29 34.033492 -118.584777 276 4661ft 109kts
09-Feb-19 22:30 34.040826 -118.620973 283 4633ft 111kts
09-Feb-19 22:31 34.048005 -118.658249 280 4626ft 115kts
09-Feb-19 22:32 34.053448 -118.695877 281 4578ft 113kts
09-Feb-19 22:33 34.059662 -118.733278 281 4639ft 114kts
09-Feb-19 22:34 34.067202 -118.769696 282 4561ft 109kts
09-Feb-19 22:35 34.073194 -118.804839 278 4592ft 106kts
09-Feb-19 22:35 34.077808 -118.834928 280 4621ft 114kts
09-Feb-19 22:37 34.085431 -118.879200 279 4601ft 115kts
09-Feb-19 22:38 34.091966 -118.917006 280 4572ft 114kts
09-Feb-19 22:39 34.098685 -118.954396 282 4568ft 114kts
09-Feb-19 22:39 34.104492 -118.985117 280 4603ft 106kts
09-Feb-19 22:41 34.110466 -119.021390 277 4566ft 92kts
09-Feb-19 22:41 34.113962 -119.046880 281 4717ft 93kts
09-Feb-19 22:42 34.133220 -119.068174 323 4534ft 98kts
09-Feb-19 22:44 34.147088 -119.051291 148 4506ft 105kts
09-Feb-19 22:45 34.122947 -119.056750 199 4647ft 88kts
09-Feb-19 22:45 34.113066 -119.037633 53 4619ft 101kts
09-Feb-19 22:46 34.135759 -119.044472 320 4685ft 96kts
09-Feb-19 22:47 34.158306 -119.064110 300 4583ft 93kts
09-Feb-19 22:48 34.143177 -119.071036 142 4554ft 99kts
09-Feb-19 22:49 34.119821 -119.049119 124 4628ft 111kts
09-Feb-19 22:50 34.125858 -119.012737 71 4996ft 112kts
09-Feb-19 22:51 34.135062 -118.977706 74 4970ft 105kts
09-Feb-19 22:52 34.144648 -118.941653 73 5037ft 125kts
09-Feb-19 22:53 34.156308 -118.900899 57 4958ft 129kts
09-Feb-19 22:54 34.175577 -118.864757 55 4449ft 126kts
09-Feb-19 22:55 34.194843 -118.829158 55 4458ft 128kts
09-Feb-19 22:56 34.214437 -118.793281 55 4459ft 128kts
09-Feb-19 22:57 34.225085 -118.755753 87 4390ft 108kts
09-Feb-19 22:58 34.225216 -118.719097 94 4524ft 108kts
09-Feb-19 22:59 34.223816 -118.681809 91 4356ft 112kts
09-Feb-19 23:00 34.223494 -118.644197 91 3888ft 112kts
09-Feb-19 23:01 34.223005 -118.607314 91 3784ft 108kts
09-Feb-19 23:02 34.223195 -118.571036 90 3335ft 108kts
09-Feb-19 23:03 34.223518 -118.535485 89 3172ft 105kts
09-Feb-19 23:04 34.223520 -118.500730 92 3117ft 100kts
09-Feb-19 23:05 34.219146 -118.469684 105 2786ft 95kts
09-Feb-19 23:06 34.212352 -118.439150 104 2239ft 94kts
09-Feb-19 23:07 34.206430 -118.408774 105 1600ft 89kts
09-Feb-19 23:08 34.199913 -118.380688 105 1620ft 88kts
09-Feb-19 23:09 34.197818 -118.361446 90 781ft 20kts
09-Feb-19 23:10 34.198641 -118.360265 2 781ft 0kts

Navigation Log

Ident Type
Flight plan parsing failed, navigation log unavailable